Time;durP1;ratioP1;P1;durP2;ratioP2;P2;SDS_P1;SDS_P2;PMS_P1;PMS_P2;Temp;Humidity;BMP_temperature;BMP_pressure;BME280_temperature;BME280_humidity;BME280_pressure;Samples;Min_cycle;Max_cycle;Signal;HPM_P1;HPM_P2
2021/09/12 00:01:24;;;;;;;3.60;3.30;;;;;;;;;;5076473;28;20229;-48
2021/09/12 00:03:50;;;;;;;3.90;3.42;;;;;;;;;;5075416;28;20187;-48
2021/09/12 00:06:16;;;;;;;4.43;3.55;;;;;;;;;;5074461;28;20166;-48
2021/09/12 00:08:42;;;;;;;4.88;3.50;;;;;;;;;;5083257;28;20194;-48
2021/09/12 00:11:08;;;;;;;5.35;3.38;;;;;;;;;;5090098;28;20202;-48
2021/09/12 00:13:34;;;;;;;3.95;3.30;;;;;;;;;;5095544;28;20212;-48
2021/09/12 00:16:00;;;;;;;5.38;2.92;;;;;;;;;;5094492;28;20569;-48
2021/09/12 00:18:26;;;;;;;4.45;3.60;;;;;;;;;;5093929;28;20174;-48
2021/09/12 00:20:52;;;;;;;3.10;2.80;;;;;;;;;;5091130;28;20183;-48
2021/09/12 00:23:18;;;;;;;3.45;3.15;;;;;;;;;;5074990;28;20189;-48
2021/09/12 00:25:44;;;;;;;2.80;2.60;;;;;;;;;;5078696;28;20202;-48
2021/09/12 00:28:10;;;;;;;4.95;3.00;;;;;;;;;;5094636;28;20170;-48
2021/09/12 00:30:36;;;;;;;3.50;3.00;;;;;;;;;;5093854;28;20186;-48
2021/09/12 00:33:03;;;;;;;3.42;3.13;;;;;;;;;;5074865;28;20297;-48
2021/09/12 00:35:29;;;;;;;3.20;2.90;;;;;;;;;;5074588;28;20174;-48
2021/09/12 00:37:55;;;;;;;3.35;3.05;;;;;;;;;;5083439;28;20640;-48
2021/09/12 00:40:22;;;;;;;4.03;2.60;;;;;;;;;;5094053;28;20232;-48
2021/09/12 00:42:48;;;;;;;3.35;2.80;;;;;;;;;;5084448;28;20200;-48
2021/09/12 00:45:14;;;;;;;3.13;2.83;;;;;;;;;;5085092;28;20530;-48
2021/09/12 00:47:40;;;;;;;3.35;3.05;;;;;;;;;;5074173;28;20445;-48
2021/09/12 00:50:06;;;;;;;3.20;3.00;;;;;;;;;;5077947;28;20548;-48
2021/09/12 00:52:37;;;;;;;3.33;3.05;;;;;;;;;;5094232;28;20198;-48
2021/09/12 00:55:03;;;;;;;2.70;2.50;;;;;;;;;;5089085;28;20178;-48
2021/09/12 00:57:32;;;;;;;3.30;2.95;;;;;;;;;;5082654;28;20176;-48
2021/09/12 00:59:58;;;;;;;3.10;2.90;;;;;;;;;;5090365;28;20190;-48
2021/09/12 01:02:24;;;;;;;3.50;3.20;;;;;;;;;;5089273;28;20194;-48
2021/09/12 01:04:50;;;;;;;3.83;3.05;;;;;;;;;;5086168;28;20216;-48
2021/09/12 01:07:16;;;;;;;7.85;2.78;;;;;;;;;;5074161;28;20605;-48
2021/09/12 01:09:42;;;;;;;3.78;3.20;;;;;;;;;;5079377;28;20182;-48
2021/09/12 01:12:09;;;;;;;7.75;2.97;;;;;;;;;;5088488;28;20269;-48
2021/09/12 01:14:35;;;;;;;3.15;2.53;;;;;;;;;;5094401;28;20177;-48
2021/09/12 01:17:01;;;;;;;5.22;2.97;;;;;;;;;;5079129;28;20182;-48
2021/09/12 01:19:28;;;;;;;3.88;2.97;;;;;;;;;;5088354;28;20193;-47
2021/09/12 01:21:58;;;;;;;2.75;2.55;;;;;;;;;;5084101;28;20510;-48
2021/09/12 01:24:25;;;;;;;2.95;2.70;;;;;;;;;;5075823;28;20177;-48
2021/09/12 01:26:51;;;;;;;3.05;2.78;;;;;;;;;;5087507;28;20180;-48
2021/09/12 01:29:17;;;;;;;3.70;2.65;;;;;;;;;;5094085;28;20439;-48
2021/09/12 01:31:43;;;;;;;5.63;3.15;;;;;;;;;;5080072;28;20179;-48
2021/09/12 01:34:09;;;;;;;6.60;3.03;;;;;;;;;;5088096;28;20204;-48
2021/09/12 01:36:35;;;;;;;4.20;3.15;;;;;;;;;;5098489;28;20173;-48
2021/09/12 01:39:01;;;;;;;3.67;2.95;;;;;;;;;;5097561;28;20198;-48
2021/09/12 01:41:28;;;;;;;3.25;2.95;;;;;;;;;;5082042;28;20183;-48
2021/09/12 01:43:56;;;;;;;3.45;3.15;;;;;;;;;;5089414;28;20322;-48
2021/09/12 01:46:23;;;;;;;3.55;2.70;;;;;;;;;;5097481;28;20603;-48
2021/09/12 01:48:49;;;;;;;3.00;2.80;;;;;;;;;;5097814;28;20572;-48
2021/09/12 01:51:15;;;;;;;4.03;2.60;;;;;;;;;;5097629;28;20268;-48
2021/09/12 01:53:41;;;;;;;3.10;2.90;;;;;;;;;;5093552;28;20518;-48
2021/09/12 01:56:07;;;;;;;3.33;3.03;;;;;;;;;;5090694;28;20181;-48
2021/09/12 01:58:34;;;;;;;3.33;3.13;;;;;;;;;;5077160;28;20191;-48
2021/09/12 02:00:59;;;;;;;2.67;2.47;;;;;;;;;;5079622;28;20637;-48
2021/09/12 02:03:25;;;;;;;2.90;2.70;;;;;;;;;;5077552;28;20167;-48
2021/09/12 02:05:52;;;;;;;3.35;3.00;;;;;;;;;;5077629;28;20197;-48
2021/09/12 02:08:17;;;;;;;3.40;3.10;;;;;;;;;;5095829;28;20178;-48
2021/09/12 02:10:43;;;;;;;4.82;2.90;;;;;;;;;;5092792;28;20492;-48
2021/09/12 02:13:10;;;;;;;5.07;2.95;;;;;;;;;;5092092;28;20174;-48
2021/09/12 02:15:36;;;;;;;2.85;2.63;;;;;;;;;;5097201;28;20251;-48
2021/09/12 02:18:02;;;;;;;2.90;2.70;;;;;;;;;;5097169;28;20199;-48
2021/09/12 02:20:28;;;;;;;7.63;3.50;;;;;;;;;;5096401;28;20205;-48
2021/09/12 02:22:54;;;;;;;4.85;3.15;;;;;;;;;;5097557;28;20213;-48
2021/09/12 02:25:20;;;;;;;5.50;2.92;;;;;;;;;;5096839;28;20622;-48
2021/09/12 02:27:46;;;;;;;3.10;2.80;;;;;;;;;;5096742;28;20257;-48
2021/09/12 02:30:12;;;;;;;3.00;2.80;;;;;;;;;;5096552;28;20457;-48
2021/09/12 02:32:38;;;;;;;3.45;2.53;;;;;;;;;;5097100;28;20642;-48
2021/09/12 02:35:04;;;;;;;3.60;3.30;;;;;;;;;;5086478;28;20257;-48
2021/09/12 02:37:30;;;;;;;3.88;2.78;;;;;;;;;;5096339;28;20197;-48
2021/09/12 02:39:56;;;;;;;3.25;2.60;;;;;;;;;;5092998;28;20236;-48
2021/09/12 02:42:22;;;;;;;3.05;2.70;;;;;;;;;;5093526;28;20508;-48
2021/09/12 02:44:48;;;;;;;3.50;2.70;;;;;;;;;;5096521;28;20241;-48
2021/09/12 02:47:14;;;;;;;3.97;3.00;;;;;;;;;;5096679;28;20249;-48
2021/09/12 02:49:41;;;;;;;5.25;3.00;;;;;;;;;;5096406;28;20548;-48
2021/09/12 02:52:07;;;;;;;4.22;2.78;;;;;;;;;;5087774;28;20192;-48
2021/09/12 02:54:33;;;;;;;3.47;2.88;;;;;;;;;;5096243;28;20185;-48
2021/09/12 02:56:59;;;;;;;3.05;2.78;;;;;;;;;;5096558;28;20595;-48
2021/09/12 02:59:25;;;;;;;5.07;2.83;;;;;;;;;;5096850;28;20276;-48
2021/09/12 03:01:51;;;;;;;3.15;2.78;;;;;;;;;;5083598;28;20206;-48
2021/09/12 03:04:17;;;;;;;3.92;2.88;;;;;;;;;;5076565;28;20183;-48
2021/09/12 03:06:43;;;;;;;2.80;2.60;;;;;;;;;;5088073;28;20196;-48
2021/09/12 03:09:09;;;;;;;3.40;3.10;;;;;;;;;;5095818;28;20607;-48
2021/09/12 03:11:35;;;;;;;3.58;3.08;;;;;;;;;;5089092;28;20177;-48
2021/09/12 03:14:01;;;;;;;2.78;2.58;;;;;;;;;;5096042;28;20182;-48
2021/09/12 03:16:27;;;;;;;2.90;2.70;;;;;;;;;;5085987;28;20229;-48
2021/09/12 03:18:53;;;;;;;2.92;2.67;;;;;;;;;;5075713;28;20218;-48
2021/09/12 03:21:19;;;;;;;2.75;2.55;;;;;;;;;;5085464;28;20213;-47
2021/09/12 03:23:46;;;;;;;4.55;2.65;;;;;;;;;;5096151;28;20170;-48
2021/09/12 03:26:12;;;;;;;4.47;2.70;;;;;;;;;;5095871;28;20461;-48
2021/09/12 03:28:38;;;;;;;4.57;2.60;;;;;;;;;;5095090;28;20188;-48
2021/09/12 03:31:04;;;;;;;5.95;3.03;;;;;;;;;;5092405;28;20189;-48
2021/09/12 03:33:30;;;;;;;3.40;3.10;;;;;;;;;;5096341;28;20188;-48
2021/09/12 03:35:57;;;;;;;3.17;2.65;;;;;;;;;;5084166;28;20185;-48
2021/09/12 03:38:23;;;;;;;3.97;3.05;;;;;;;;;;5095393;28;20182;-48
2021/09/12 03:40:49;;;;;;;3.03;2.75;;;;;;;;;;5087301;28;20420;-48
2021/09/12 03:43:15;;;;;;;3.13;2.83;;;;;;;;;;5095976;28;20181;-48
2021/09/12 03:45:41;;;;;;;2.83;2.63;;;;;;;;;;5095668;28;20181;-48
2021/09/12 03:48:07;;;;;;;4.68;3.33;;;;;;;;;;5095257;28;20158;-48
2021/09/12 03:50:33;;;;;;;3.30;2.90;;;;;;;;;;5087343;28;20174;-48
2021/09/12 03:52:59;;;;;;;2.80;2.60;;;;;;;;;;5095756;28;20454;-48
2021/09/12 03:55:25;;;;;;;3.58;3.08;;;;;;;;;;5088376;28;20220;-48
2021/09/12 03:57:51;;;;;;;2.70;2.50;;;;;;;;;;5074937;28;20182;-48
2021/09/12 04:00:17;;;;;;;3.55;2.72;;;;;;;;;;5088022;28;20939;-48
2021/09/12 04:02:43;;;;;;;3.10;2.75;;;;;;;;;;5077338;28;20181;-48
2021/09/12 04:05:10;;;;;;;2.92;2.72;;;;;;;;;;5080439;28;20186;-48
2021/09/12 04:07:36;;;;;;;3.20;2.90;;;;;;;;;;5074978;28;20198;-48
2021/09/12 04:10:03;;;;;;;3.58;3.30;;;;;;;;;;5074957;28;20178;-48
2021/09/12 04:12:29;;;;;;;4.05;3.00;;;;;;;;;;5091181;28;20185;-48
2021/09/12 04:14:55;;;;;;;2.90;2.60;;;;;;;;;;5090960;28;20293;-48
2021/09/12 04:17:21;;;;;;;4.47;2.72;;;;;;;;;;5074708;28;20546;-48
2021/09/12 04:19:47;;;;;;;2.72;2.53;;;;;;;;;;5093787;28;20231;-48
2021/09/12 04:22:13;;;;;;;5.03;3.55;;;;;;;;;;5081495;28;20221;-48
2021/09/12 04:24:39;;;;;;;4.57;2.25;;;;;;;;;;5074875;28;20231;-48
2021/09/12 04:27:05;;;;;;;2.80;2.60;;;;;;;;;;5077538;28;21644;-48
2021/09/12 04:29:31;;;;;;;2.75;2.55;;;;;;;;;;5094931;28;20173;-49
2021/09/12 04:31:57;;;;;;;4.03;2.65;;;;;;;;;;5083728;28;20190;-48
2021/09/12 04:34:23;;;;;;;4.50;2.85;;;;;;;;;;5091743;28;20182;-48
2021/09/12 04:36:49;;;;;;;2.88;2.67;;;;;;;;;;5075766;28;20186;-48
2021/09/12 04:39:15;;;;;;;2.85;2.65;;;;;;;;;;5093825;28;20290;-48
2021/09/12 04:41:41;;;;;;;2.63;2.42;;;;;;;;;;5085253;28;20173;-48
2021/09/12 04:44:07;;;;;;;4.22;2.70;;;;;;;;;;5094910;28;20267;-48
2021/09/12 04:46:33;;;;;;;3.33;2.83;;;;;;;;;;5094953;28;20333;-48
2021/09/12 04:48:59;;;;;;;3.95;2.53;;;;;;;;;;5094333;28;20181;-48
2021/09/12 04:51:25;;;;;;;3.50;3.10;;;;;;;;;;5086322;28;20820;-48
2021/09/12 04:53:52;;;;;;;3.60;2.80;;;;;;;;;;5092446;28;20264;-48
2021/09/12 04:56:18;;;;;;;2.50;2.30;;;;;;;;;;5088692;28;20260;-48
2021/09/12 04:58:44;;;;;;;5.50;3.03;;;;;;;;;;5094347;28;20691;-47
2021/09/12 05:01:10;;;;;;;3.05;2.78;;;;;;;;;;5090478;28;20277;-48
2021/09/12 05:03:36;;;;;;;2.30;2.20;;;;;;;;;;5081492;28;20462;-48
2021/09/12 05:06:02;;;;;;;2.50;2.30;;;;;;;;;;5083849;28;20270;-48
2021/09/12 05:08:28;;;;;;;2.65;2.45;;;;;;;;;;5080571;28;20174;-48
2021/09/12 05:10:54;;;;;;;2.95;2.75;;;;;;;;;;5096688;28;20252;-48
2021/09/12 05:13:20;;;;;;;4.47;3.17;;;;;;;;;;5083783;28;20506;-48
2021/09/12 05:15:46;;;;;;;4.20;3.80;;;;;;;;;;5096998;28;20263;-48
2021/09/12 05:18:13;;;;;;;5.10;3.47;;;;;;;;;;5080287;28;20166;-48
2021/09/12 05:20:40;;;;;;;4.00;3.53;;;;;;;;;;5096531;28;20209;-48
2021/09/12 05:23:06;;;;;;;3.40;3.10;;;;;;;;;;5085626;28;20174;-49
2021/09/12 05:25:32;;;;;;;3.67;3.38;;;;;;;;;;5100461;28;20239;-48
2021/09/12 05:27:58;;;;;;;3.47;2.53;;;;;;;;;;5094529;28;20257;-48
2021/09/12 05:30:24;;;;;;;2.85;2.55;;;;;;;;;;5091930;28;20273;-48
2021/09/12 05:32:50;;;;;;;3.30;3.00;;;;;;;;;;5100731;28;20203;-48
2021/09/12 05:35:17;;;;;;;2.75;2.55;;;;;;;;;;5100607;28;20611;-48
2021/09/12 05:37:43;;;;;;;3.30;3.00;;;;;;;;;;5099869;28;20200;-49
2021/09/12 05:40:09;;;;;;;3.13;2.83;;;;;;;;;;5095198;28;20287;-48
2021/09/12 05:42:36;;;;;;;2.85;2.65;;;;;;;;;;5095618;28;20502;-48
2021/09/12 05:45:02;;;;;;;3.58;2.65;;;;;;;;;;5101026;28;20230;-49
2021/09/12 05:47:28;;;;;;;3.17;2.97;;;;;;;;;;5100575;28;20173;-48
2021/09/12 05:49:54;;;;;;;2.97;2.78;;;;;;;;;;5097765;28;20650;-48
2021/09/12 05:52:21;;;;;;;3.55;3.22;;;;;;;;;;5087193;28;20236;-48
2021/09/12 05:54:47;;;;;;;4.55;3.00;;;;;;;;;;5082370;28;20202;-48
2021/09/12 05:57:13;;;;;;;5.10;3.05;;;;;;;;;;5100236;28;20193;-48
2021/09/12 05:59:39;;;;;;;2.95;2.72;;;;;;;;;;5098586;28;20197;-48
2021/09/12 06:02:05;;;;;;;5.25;2.70;;;;;;;;;;5090794;28;20233;-48
2021/09/12 06:04:31;;;;;;;4.30;3.33;;;;;;;;;;5100417;28;20445;-48
2021/09/12 06:06:58;;;;;;;4.63;3.10;;;;;;;;;;5079840;28;20553;-48
2021/09/12 06:09:24;;;;;;;3.78;2.80;;;;;;;;;;5080577;28;20430;-48
2021/09/12 06:11:51;;;;;;;7.03;3.60;;;;;;;;;;5088510;28;20181;-48
2021/09/12 06:14:17;;;;;;;3.65;3.35;;;;;;;;;;5100717;28;20412;-48
2021/09/12 06:16:43;;;;;;;5.80;3.50;;;;;;;;;;5096854;28;20185;-48
2021/09/12 06:19:09;;;;;;;4.90;3.70;;;;;;;;;;5095094;28;20197;-48
2021/09/12 06:21:35;;;;;;;3.47;3.17;;;;;;;;;;5093036;28;20163;-49
2021/09/12 06:24:01;;;;;;;4.43;3.20;;;;;;;;;;5097241;28;20204;-48
2021/09/12 06:26:27;;;;;;;6.05;2.97;;;;;;;;;;5092543;28;20593;-48
2021/09/12 06:28:54;;;;;;;8.13;3.67;;;;;;;;;;5096883;28;20221;-48
2021/09/12 06:31:20;;;;;;;4.00;3.10;;;;;;;;;;5084833;28;20239;-48
2021/09/12 06:33:46;;;;;;;3.13;2.80;;;;;;;;;;5097037;28;20173;-48
2021/09/12 06:36:13;;;;;;;3.72;3.08;;;;;;;;;;5079697;28;20503;-48
2021/09/12 06:38:39;;;;;;;5.15;2.83;;;;;;;;;;5091600;28;20182;-48
2021/09/12 06:41:05;;;;;;;5.40;3.00;;;;;;;;;;5084375;28;20277;-48
2021/09/12 06:43:31;;;;;;;4.38;2.88;;;;;;;;;;5097091;28;20193;-48
2021/09/12 06:45:57;;;;;;;5.05;4.55;;;;;;;;;;5084926;28;20179;-46
2021/09/12 06:48:23;;;;;;;5.45;3.63;;;;;;;;;;5094436;28;20180;-48
2021/09/12 06:50:49;;;;;;;3.92;3.45;;;;;;;;;;5095442;28;20185;-46
2021/09/12 06:53:15;;;;;;;6.50;3.85;;;;;;;;;;5087134;28;20587;-46
2021/09/12 06:55:41;;;;;;;5.60;4.05;;;;;;;;;;5088879;28;20191;-46
2021/09/12 06:58:07;;;;;;;4.43;3.40;;;;;;;;;;5094494;28;20239;-46
2021/09/12 07:00:34;;;;;;;4.60;4.13;;;;;;;;;;5089987;28;20281;-46
2021/09/12 07:03:00;;;;;;;5.88;4.15;;;;;;;;;;5092995;28;20529;-46
2021/09/12 07:05:26;;;;;;;6.65;5.53;;;;;;;;;;5086396;28;20185;-46
2021/09/12 07:07:52;;;;;;;6.50;5.85;;;;;;;;;;5088276;28;20201;-46
2021/09/12 07:10:18;;;;;;;8.27;6.25;;;;;;;;;;5085295;28;20227;-46
2021/09/12 07:12:45;;;;;;;8.35;6.88;;;;;;;;;;5085156;28;20553;-46
2021/09/12 07:15:11;;;;;;;8.00;6.88;;;;;;;;;;5090359;28;20217;-46
2021/09/12 07:17:37;;;;;;;7.93;6.30;;;;;;;;;;5079833;28;20177;-46
2021/09/12 07:20:03;;;;;;;6.70;5.88;;;;;;;;;;5082204;28;20298;-46
2021/09/12 07:22:29;;;;;;;6.35;5.72;;;;;;;;;;5083205;28;20221;-46
2021/09/12 07:24:56;;;;;;;8.40;6.43;;;;;;;;;;5094255;28;20181;-46
2021/09/12 07:27:21;;;;;;;6.93;5.63;;;;;;;;;;5092199;28;20182;-46
2021/09/12 07:29:48;;;;;;;5.82;5.32;;;;;;;;;;5091489;28;20208;-46
2021/09/12 07:32:14;;;;;;;6.80;6.10;;;;;;;;;;5087459;28;20183;-46
2021/09/12 07:34:40;;;;;;;8.30;5.90;;;;;;;;;;5089398;28;20204;-46
2021/09/12 07:37:06;;;;;;;11.90;8.82;;;;;;;;;;5090113;28;20567;-46
2021/09/12 07:39:32;;;;;;;11.18;8.27;;;;;;;;;;5086271;28;20588;-46
2021/09/12 07:41:58;;;;;;;9.75;7.88;;;;;;;;;;5090082;28;20182;-46
2021/09/12 07:44:24;;;;;;;9.13;7.45;;;;;;;;;;5093615;28;20563;-46
2021/09/12 07:46:50;;;;;;;7.00;6.40;;;;;;;;;;5092221;28;20169;-46
2021/09/12 07:49:16;;;;;;;13.80;7.43;;;;;;;;;;5093698;28;20301;-46
2021/09/12 07:51:43;;;;;;;9.05;6.22;;;;;;;;;;5093276;28;20528;-46
2021/09/12 07:54:08;;;;;;;6.95;6.00;;;;;;;;;;5093247;28;20177;-46
2021/09/12 07:56:34;;;;;;;8.80;6.20;;;;;;;;;;5093043;28;20303;-46
2021/09/12 07:59:00;;;;;;;7.25;5.40;;;;;;;;;;5078642;28;20202;-46
2021/09/12 08:01:26;;;;;;;7.15;5.30;;;;;;;;;;5074479;28;20764;-46
2021/09/12 08:03:52;;;;;;;9.90;5.80;;;;;;;;;;5074380;28;20170;-46
2021/09/12 08:06:18;;;;;;;5.85;5.20;;;;;;;;;;5075063;28;20257;-46
2021/09/12 08:08:44;;;;;;;7.28;5.60;;;;;;;;;;5074547;28;20181;-46
2021/09/12 08:11:10;;;;;;;7.95;6.75;;;;;;;;;;5074899;28;20194;-46
2021/09/12 08:13:36;;;;;;;6.75;6.15;;;;;;;;;;5080936;28;20237;-46
2021/09/12 08:16:03;;;;;;;7.72;6.60;;;;;;;;;;5095099;28;20588;-46
2021/09/12 08:18:29;;;;;;;6.10;5.53;;;;;;;;;;5094683;28;20166;-46
2021/09/12 08:20:55;;;;;;;5.22;4.82;;;;;;;;;;5095339;28;20170;-46
2021/09/12 08:23:21;;;;;;;6.22;5.63;;;;;;;;;;5095207;28;20172;-46
2021/09/12 08:25:47;;;;;;;5.97;5.47;;;;;;;;;;5095358;28;20948;-46
2021/09/12 08:28:13;;;;;;;7.20;5.75;;;;;;;;;;5094720;28;20170;-46
2021/09/12 08:30:39;;;;;;;7.85;6.88;;;;;;;;;;5094624;28;20181;-46
2021/09/12 08:33:11;;;;;;;6.90;6.20;;;;;;;;;;5095102;28;20193;-46
2021/09/12 08:35:37;;;;;;;6.50;5.90;;;;;;;;;;5094938;28;20227;-46
2021/09/12 08:38:03;;;;;;;7.65;5.28;;;;;;;;;;5094058;28;20198;-46
2021/09/12 08:40:30;;;;;;;7.85;6.97;;;;;;;;;;5094061;28;20588;-46
2021/09/12 08:42:57;;;;;;;10.00;7.00;;;;;;;;;;5094731;28;20197;-46
2021/09/12 08:45:26;;;;;;;6.68;6.07;;;;;;;;;;5094594;28;20181;-46
2021/09/12 08:47:53;;;;;;;6.05;5.45;;;;;;;;;;5094119;28;20179;-45
2021/09/12 08:50:19;;;;;;;7.93;6.32;;;;;;;;;;5091584;28;20170;-46
2021/09/12 08:52:45;;;;;;;7.78;7.07;;;;;;;;;;5086029;28;20209;-46
2021/09/12 08:55:11;;;;;;;7.75;6.72;;;;;;;;;;5092424;28;20202;-46
2021/09/12 08:57:47;;;;;;;7.65;6.82;;;;;;;;;;5088400;28;20174;-46
2021/09/12 09:00:31;;;;;;;7.05;6.38;;;;;;;;;;5091342;28;20235;-46
2021/09/12 09:02:58;;;;;;;7.53;6.82;;;;;;;;;;5087902;28;20201;-46
2021/09/12 09:05:44;;;;;;;8.07;6.60;;;;;;;;;;5091400;28;20176;-45
2021/09/12 09:08:14;;;;;;;7.85;6.85;;;;;;;;;;5082789;28;20444;-46
2021/09/12 09:10:44;;;;;;;7.30;6.60;;;;;;;;;;5077174;28;20205;-46
2021/09/12 09:13:35;;;;;;;6.78;6.07;;;;;;;;;;5085660;28;20651;-46
2021/09/12 09:16:03;;;;;;;7.70;6.82;;;;;;;;;;5072745;28;20192;-46
2021/09/12 09:18:33;;;;;;;8.70;6.95;;;;;;;;;;5087700;28;20199;-46
2021/09/12 09:20:59;;;;;;;6.35;5.70;;;;;;;;;;5093419;28;20166;-46
2021/09/12 09:23:25;;;;;;;7.75;5.80;;;;;;;;;;5093037;28;20172;-46
2021/09/12 09:25:53;;;;;;;6.18;5.57;;;;;;;;;;5093699;28;20155;-46
2021/09/12 09:28:19;;;;;;;6.57;5.45;;;;;;;;;;5093038;28;20615;-45
2021/09/12 09:30:49;;;;;;;5.38;4.88;;;;;;;;;;5092295;28;20181;-45
2021/09/12 09:33:16;;;;;;;6.28;5.53;;;;;;;;;;5093819;28;20850;-46
2021/09/12 09:35:52;;;;;;;6.43;5.15;;;;;;;;;;5094139;28;20169;-46
2021/09/12 09:38:22;;;;;;;6.13;5.60;;;;;;;;;;5093320;28;20280;-46
2021/09/12 09:41:06;;;;;;;6.18;5.38;;;;;;;;;;5094205;28;20439;-46
2021/09/12 09:43:52;;;;;;;5.50;4.97;;;;;;;;;;5090410;28;20188;-46
2021/09/12 09:46:33;;;;;;;5.22;4.82;;;;;;;;;;5091153;28;20180;-46
2021/09/12 09:49:20;;;;;;;4.90;4.50;;;;;;;;;;5081778;28;20883;-46
2021/09/12 09:52:01;;;;;;;5.57;4.78;;;;;;;;;;5086403;28;20181;-46
2021/09/12 09:54:31;;;;;;;6.28;5.32;;;;;;;;;;5090852;28;20193;-46
2021/09/12 09:56:58;;;;;;;4.55;3.95;;;;;;;;;;5090261;28;20182;-46
2021/09/12 09:59:25;;;;;;;4.90;4.25;;;;;;;;;;5092629;28;20229;-46
2021/09/12 10:01:54;;;;;;;5.45;4.40;;;;;;;;;;5090054;28;20178;-46
2021/09/12 10:04:21;;;;;;;4.47;4.07;;;;;;;;;;5094755;28;20181;-46
2021/09/12 10:06:47;;;;;;;4.40;4.00;;;;;;;;;;5090493;28;20178;-46
2021/09/12 10:09:14;;;;;;;5.63;4.53;;;;;;;;;;5087679;28;20182;-46
2021/09/12 10:11:46;;;;;;;5.20;4.70;;;;;;;;;;5096555;28;20206;-46
2021/09/12 10:14:13;;;;;;;8.05;5.38;;;;;;;;;;5097455;28;20188;-47
2021/09/12 10:16:40;;;;;;;6.82;5.60;;;;;;;;;;5095409;28;20170;-46
2021/09/12 10:19:06;;;;;;;6.18;5.57;;;;;;;;;;5096336;28;20208;-46
2021/09/12 10:21:32;;;;;;;7.03;6.00;;;;;;;;;;5090923;28;20585;-46
2021/09/12 10:24:00;;;;;;;6.15;5.57;;;;;;;;;;5097048;28;20182;-46
2021/09/12 10:26:37;;;;;;;6.13;5.53;;;;;;;;;;5096455;28;20181;-46
2021/09/12 10:29:03;;;;;;;7.35;5.65;;;;;;;;;;5096307;28;20174;-46
2021/09/12 10:31:31;;;;;;;7.22;6.35;;;;;;;;;;5091605;28;20170;-46
2021/09/12 10:34:07;;;;;;;5.70;5.07;;;;;;;;;;5088544;28;20457;-46
2021/09/12 10:36:33;;;;;;;8.35;5.90;;;;;;;;;;5091339;28;20178;-46
2021/09/12 10:39:19;;;;;;;7.47;5.75;;;;;;;;;;5094582;28;20285;-46
2021/09/12 10:42:05;;;;;;;7.55;5.90;;;;;;;;;;5077388;28;20264;-46
2021/09/12 10:44:31;;;;;;;9.95;6.05;;;;;;;;;;5075909;28;20550;-46
2021/09/12 10:47:07;;;;;;;6.90;5.80;;;;;;;;;;5075999;28;20174;-46
2021/09/12 10:49:33;;;;;;;9.98;5.68;;;;;;;;;;5077307;28;20223;-46
2021/09/12 10:51:59;;;;;;;5.38;4.78;;;;;;;;;;5088347;28;20177;-46
2021/09/12 10:54:25;;;;;;;4.75;4.15;;;;;;;;;;5096582;28;20178;-46
2021/09/12 10:57:05;;;;;;;4.53;4.13;;;;;;;;;;5071333;28;20186;-46
2021/09/12 10:59:31;;;;;;;3.92;3.63;;;;;;;;;;5076157;28;20461;-46
2021/09/12 11:01:57;;;;;;;3.95;3.55;;;;;;;;;;5091762;28;20178;-46
2021/09/12 11:04:32;;;;;;;3.72;2.90;;;;;;;;;;5095931;28;20177;-46
2021/09/12 11:07:03;;;;;;;3.92;3.25;;;;;;;;;;5095355;28;20264;-46
2021/09/12 11:09:29;;;;;;;2.90;2.70;;;;;;;;;;5089778;28;20249;-46
2021/09/12 11:11:56;;;;;;;3.03;2.78;;;;;;;;;;5096482;28;20561;-46
2021/09/12 11:14:22;;;;;;;3.13;2.83;;;;;;;;;;5096453;28;20165;-46
2021/09/12 11:16:49;;;;;;;4.63;2.63;;;;;;;;;;5089048;28;20170;-46
2021/09/12 11:19:15;;;;;;;4.22;2.17;;;;;;;;;;5076613;28;20204;-46
2021/09/12 11:21:41;;;;;;;2.65;2.28;;;;;;;;;;5091309;28;20181;-46
2021/09/12 11:24:09;;;;;;;2.70;2.50;;;;;;;;;;5095752;28;20215;-46
2021/09/12 11:26:41;;;;;;;2.50;2.30;;;;;;;;;;5078184;28;20181;-46
2021/09/12 11:29:18;;;;;;;2.40;2.20;;;;;;;;;;5083817;28;20185;-46
2021/09/12 11:31:45;;;;;;;1.98;1.77;;;;;;;;;;5077216;28;20217;-46
2021/09/12 11:34:12;;;;;;;3.15;2.25;;;;;;;;;;5075770;28;20194;-46
2021/09/12 11:36:55;;;;;;;2.60;2.40;;;;;;;;;;5089334;28;20572;-46
2021/09/12 11:39:28;;;;;;;2.20;2.00;;;;;;;;;;5095277;28;20193;-46
2021/09/12 11:41:57;;;;;;;2.20;2.10;;;;;;;;;;5095250;28;20356;-46
2021/09/12 11:44:29;;;;;;;3.25;2.50;;;;;;;;;;5095681;28;20166;-47
2021/09/12 11:46:55;;;;;;;2.95;2.65;;;;;;;;;;5085884;28;20178;-46
2021/09/12 11:49:23;;;;;;;2.42;2.22;;;;;;;;;;5094165;28;20185;-45
2021/09/12 11:51:50;;;;;;;3.72;2.40;;;;;;;;;;5095734;28;20257;-46
2021/09/12 11:54:19;;;;;;;2.60;2.40;;;;;;;;;;5095671;28;20241;-46
2021/09/12 11:56:53;;;;;;;2.88;2.50;;;;;;;;;;5080511;28;20701;-46
2021/09/12 11:59:19;;;;;;;2.58;2.38;;;;;;;;;;5094293;28;20212;-46
2021/09/12 12:01:48;;;;;;;2.58;2.38;;;;;;;;;;5091594;28;20185;-46
2021/09/12 12:04:15;;;;;;;2.47;2.28;;;;;;;;;;5094971;28;20184;-46
2021/09/12 12:06:44;;;;;;;2.58;2.38;;;;;;;;;;5081706;28;20259;-46
2021/09/12 12:09:16;;;;;;;2.70;2.50;;;;;;;;;;5083097;28;20456;-46
2021/09/12 12:11:43;;;;;;;2.83;2.50;;;;;;;;;;5094984;28;20193;-46
2021/09/12 12:14:29;;;;;;;3.78;2.40;;;;;;;;;;5089143;28;20189;-46
2021/09/12 12:17:02;;;;;;;2.67;2.42;;;;;;;;;;5081084;28;20206;-46
2021/09/12 12:19:33;;;;;;;2.60;2.40;;;;;;;;;;5094667;28;20203;-46
2021/09/12 12:22:03;;;;;;;2.30;2.20;;;;;;;;;;5094436;28;20285;-46
2021/09/12 12:24:34;;;;;;;2.40;2.20;;;;;;;;;;5094132;28;20202;-46
2021/09/12 12:27:04;;;;;;;2.15;1.95;;;;;;;;;;5080233;28;20569;-46
2021/09/12 12:29:31;;;;;;;3.30;2.30;;;;;;;;;;5075790;28;20171;-46
2021/09/12 12:31:59;;;;;;;2.40;2.13;;;;;;;;;;5089707;28;20288;-46
2021/09/12 12:34:45;;;;;;;2.47;2.28;;;;;;;;;;5074529;28;20220;-46
2021/09/12 12:37:12;;;;;;;2.22;2.10;;;;;;;;;;5077231;28;20203;-46
2021/09/12 12:39:38;;;;;;;2.90;2.28;;;;;;;;;;5094220;28;20201;-46
2021/09/12 12:42:04;;;;;;;3.22;2.22;;;;;;;;;;5094132;28;20190;-46
2021/09/12 12:44:39;;;;;;;4.57;2.30;;;;;;;;;;5094399;28;20174;-46
2021/09/12 12:47:05;;;;;;;4.82;2.30;;;;;;;;;;5080940;28;20174;-46
2021/09/12 12:49:32;;;;;;;2.10;2.00;;;;;;;;;;5092627;28;20275;-46
2021/09/12 12:52:01;;;;;;;2.90;1.95;;;;;;;;;;5094737;28;20170;-47
2021/09/12 12:54:31;;;;;;;2.30;2.10;;;;;;;;;;5075703;28;20182;-46
2021/09/12 12:56:57;;;;;;;1.90;1.80;;;;;;;;;;5094304;28;20184;-46
2021/09/12 12:59:23;;;;;;;2.72;1.80;;;;;;;;;;5093794;28;20189;-46
2021/09/12 13:01:49;;;;;;;2.40;2.20;;;;;;;;;;5094134;28;20181;-46
2021/09/12 13:04:15;;;;;;;3.67;2.28;;;;;;;;;;5093870;28;20226;-46
2021/09/12 13:06:41;;;;;;;2.47;2.13;;;;;;;;;;5094236;28;20170;-46
2021/09/12 13:09:07;;;;;;;2.42;2.22;;;;;;;;;;5093200;28;20184;-46
2021/09/12 13:11:34;;;;;;;2.20;2.00;;;;;;;;;;5092834;28;20170;-46
2021/09/12 13:14:00;;;;;;;2.15;2.03;;;;;;;;;;5093629;28;20212;-46
2021/09/12 13:16:26;;;;;;;2.22;2.03;;;;;;;;;;5085054;28;20261;-46
2021/09/12 13:18:52;;;;;;;2.20;2.00;;;;;;;;;;5073708;28;20275;-46
2021/09/12 13:21:18;;;;;;;2.17;1.92;;;;;;;;;;5077979;28;20251;-46
2021/09/12 13:23:44;;;;;;;3.00;2.30;;;;;;;;;;5074283;28;20566;-46
2021/09/12 13:26:10;;;;;;;2.45;2.20;;;;;;;;;;5075406;28;20170;-46
2021/09/12 13:28:36;;;;;;;2.10;2.00;;;;;;;;;;5081618;28;20184;-46
2021/09/12 13:31:04;;;;;;;2.60;2.40;;;;;;;;;;5085730;28;20186;-46
2021/09/12 13:33:33;;;;;;;2.45;2.25;;;;;;;;;;5082030;28;20575;-46
2021/09/12 13:35:59;;;;;;;2.65;2.13;;;;;;;;;;5085695;28;20190;-46
2021/09/12 13:38:26;;;;;;;2.80;2.05;;;;;;;;;;5094858;28;20181;-46
2021/09/12 13:40:52;;;;;;;2.53;2.10;;;;;;;;;;5093557;28;20209;-46
2021/09/12 13:43:19;;;;;;;5.03;2.40;;;;;;;;;;5096770;28;20190;-46
2021/09/12 13:45:45;;;;;;;2.30;2.10;;;;;;;;;;5096719;28;20246;-47
2021/09/12 13:48:11;;;;;;;2.63;2.17;;;;;;;;;;5095608;28;20184;-46
2021/09/12 13:50:36;;;;;;;3.78;2.20;;;;;;;;;;5097759;28;20186;-46
2021/09/12 13:53:03;;;;;;;3.03;2.15;;;;;;;;;;5097881;28;20162;-46
2021/09/12 13:55:38;;;;;;;2.13;1.92;;;;;;;;;;5090604;28;20677;-46
2021/09/12 13:58:04;;;;;;;2.30;2.10;;;;;;;;;;5077521;28;20186;-46
2021/09/12 14:00:30;;;;;;;2.08;1.98;;;;;;;;;;5091901;28;20201;-46
2021/09/12 14:02:56;;;;;;;3.08;2.40;;;;;;;;;;5077536;28;20171;-46
2021/09/12 14:05:22;;;;;;;3.05;2.03;;;;;;;;;;5086137;28;20201;-46
2021/09/12 14:07:48;;;;;;;2.45;2.25;;;;;;;;;;5097268;28;20257;-46
2021/09/12 14:10:14;;;;;;;2.42;2.03;;;;;;;;;;5096237;28;20289;-46
2021/09/12 14:12:40;;;;;;;2.30;2.10;;;;;;;;;;5079686;28;20684;-46
2021/09/12 14:15:06;;;;;;;2.20;2.00;;;;;;;;;;5082062;28;20285;-47
2021/09/12 14:17:34;;;;;;;2.25;2.08;;;;;;;;;;5096114;28;20177;-46
2021/09/12 14:20:00;;;;;;;2.03;1.85;;;;;;;;;;5097366;28;20185;-46
2021/09/12 14:22:26;;;;;;;2.30;2.10;;;;;;;;;;5097018;28;20170;-46
2021/09/12 14:24:52;;;;;;;3.17;2.10;;;;;;;;;;5093741;28;20217;-46
2021/09/12 14:27:18;;;;;;;3.45;2.45;;;;;;;;;;5090293;28;20185;-46
2021/09/12 14:29:44;;;;;;;2.00;1.90;;;;;;;;;;5096363;28;20170;-46
2021/09/12 14:32:10;;;;;;;1.90;1.80;;;;;;;;;;5097307;28;20612;-46
2021/09/12 14:34:37;;;;;;;2.00;1.90;;;;;;;;;;5096301;28;20170;-46
2021/09/12 14:37:04;;;;;;;2.08;1.98;;;;;;;;;;5077905;28;20171;-46
2021/09/12 14:39:30;;;;;;;2.15;1.95;;;;;;;;;;5095402;28;20190;-46
2021/09/12 14:41:56;;;;;;;2.45;2.13;;;;;;;;;;5096833;28;20192;-46
2021/09/12 14:44:22;;;;;;;5.07;2.15;;;;;;;;;;5096471;28;20181;-46